createdAt,value
2018-09-05T00:03:02.770Z,14.13
2018-09-05T00:08:32.027Z,14.30
2018-09-05T00:14:01.364Z,15.17
2018-09-05T00:19:30.767Z,16.20
2018-09-05T00:25:00.169Z,14.33
2018-09-05T00:30:29.587Z,13.97
2018-09-05T00:35:58.916Z,13.37
2018-09-05T00:41:28.253Z,17.20
2018-09-05T00:46:57.588Z,15.67
2018-09-05T00:52:27.601Z,17.97
2018-09-05T00:57:57.014Z,13.67
2018-09-05T01:03:26.402Z,13.43
2018-09-05T01:08:55.976Z,14.90
2018-09-05T01:14:25.290Z,12.50
2018-09-05T01:19:54.612Z,14.17
2018-09-05T01:25:23.932Z,14.87
2018-09-05T01:30:53.358Z,14.70
2018-09-05T01:36:22.591Z,14.50
2018-09-05T01:41:51.935Z,17.20
2018-09-05T01:47:21.351Z,14.63
2018-09-05T01:52:50.544Z,17.03
2018-09-05T01:58:20.624Z,14.20
2018-09-05T02:03:50.741Z,12.63
2018-09-05T02:09:20.021Z,12.33
2018-09-05T02:14:49.234Z,19.07
2018-09-05T02:20:18.451Z,11.37
2018-09-05T02:25:47.619Z,12.10
2018-09-05T02:31:16.843Z,12.10
2018-09-05T02:36:46.115Z,10.75
2018-09-05T02:42:20.896Z,12.37
2018-09-05T02:47:50.133Z,11.78
2018-09-05T02:53:19.380Z,13.67
2018-09-05T02:58:48.603Z,10.50
2018-09-05T03:04:17.979Z,13.43
2018-09-05T03:09:47.221Z,12.77
2018-09-05T03:15:16.482Z,14.87
2018-09-05T03:20:46.676Z,9.70
2018-09-05T03:26:15.891Z,13.13
2018-09-05T03:31:45.258Z,10.60
2018-09-05T03:37:14.544Z,11.93
2018-09-05T03:42:43.728Z,8.60
2018-09-05T03:48:15.053Z,9.67
2018-09-05T03:53:44.289Z,11.27
2018-09-05T03:59:13.595Z,14.50
2018-09-05T04:04:42.819Z,9.93
2018-09-05T04:10:12.052Z,11.00
2018-09-05T04:15:41.723Z,10.73
2018-09-05T04:21:10.912Z,9.30
2018-09-05T04:26:40.206Z,8.60
2018-09-05T04:32:09.446Z,10.20
2018-09-05T04:37:38.815Z,9.80
2018-09-05T04:43:08.175Z,10.23
2018-09-05T04:48:37.413Z,13.73
2018-09-05T04:54:06.604Z,8.83
2018-09-05T04:59:35.887Z,9.53
2018-09-05T05:05:06.328Z,9.20
2018-09-05T05:10:35.539Z,9.10
2018-09-05T05:16:04.795Z,6.93
2018-09-05T05:21:34.114Z,7.30
2018-09-05T05:27:03.460Z,6.63
2018-09-05T05:32:32.783Z,6.72
2018-09-05T05:38:02.156Z,6.90
2018-09-05T05:43:31.475Z,9.00
2018-09-05T05:49:00.871Z,11.50
2018-09-05T05:54:30.364Z,8.83
2018-09-05T05:59:59.697Z,9.53
2018-09-05T06:05:30.175Z,5.93
2018-09-05T06:10:59.573Z,6.13
2018-09-05T06:16:28.934Z,9.00
2018-09-05T06:21:58.292Z,7.93
2018-09-05T06:27:27.656Z,7.70
2018-09-05T06:32:56.983Z,7.23
2018-09-05T06:38:26.347Z,8.70
2018-09-05T06:43:55.683Z,7.03
2018-09-05T06:49:24.964Z,6.30
2018-09-05T06:54:54.378Z,8.30
2018-09-05T07:00:23.869Z,9.90
2018-09-05T07:05:53.184Z,6.13
2018-09-05T07:11:22.396Z,10.93
2018-09-05T07:16:56.365Z,13.13
2018-09-05T07:22:26.098Z,6.03
2018-09-05T07:27:55.459Z,8.23
2018-09-05T07:33:24.792Z,7.43
2018-09-05T07:38:54.244Z,9.93
2018-09-05T07:44:23.507Z,8.13
2018-09-05T07:49:52.912Z,6.07
2018-09-05T07:55:23.308Z,6.57
2018-09-05T08:00:52.519Z,6.40
2018-09-05T08:06:21.942Z,5.20
2018-09-05T08:11:51.225Z,6.40
2018-09-05T08:17:20.512Z,8.83
2018-09-05T08:22:49.787Z,8.90
2018-09-05T08:28:19.119Z,9.83
2018-09-05T08:33:48.538Z,6.43
2018-09-05T08:39:17.843Z,11.93
2018-09-05T08:44:47.844Z,15.00
2018-09-05T08:50:16.847Z,8.43
2018-09-05T08:55:47.252Z,7.53
2018-09-05T09:01:16.731Z,13.07
2018-09-05T09:06:45.991Z,10.07
2018-09-05T09:12:15.498Z,8.97
2018-09-05T09:17:45.156Z,12.03
2018-09-05T09:23:14.434Z,10.07
2018-09-05T09:28:43.748Z,8.53
2018-09-05T09:34:13.053Z,10.80
2018-09-05T09:39:42.380Z,13.20
2018-09-05T09:45:12.080Z,12.23
2018-09-05T09:50:41.908Z,13.93
2018-09-05T09:56:13.444Z,11.93
2018-09-05T10:01:47.977Z,14.20
2018-09-05T10:07:22.568Z,9.95
2018-09-05T10:13:00.883Z,10.73
2018-09-05T10:18:32.410Z,10.57
2018-09-05T10:24:01.925Z,10.87
2018-09-05T10:29:31.768Z,10.53
2018-09-05T10:35:01.302Z,11.88
2018-09-05T10:40:31.636Z,10.50
2018-09-05T10:46:02.216Z,12.30
2018-09-05T10:51:36.975Z,13.10
2018-09-05T10:57:06.397Z,16.33
2018-09-05T11:02:35.651Z,13.88
2018-09-05T11:08:05.007Z,13.70
2018-09-05T11:13:35.542Z,12.83
2018-09-05T11:19:13.110Z,12.73
2018-09-05T11:24:43.415Z,14.83
2018-09-05T11:30:12.636Z,14.78
2018-09-05T11:35:44.097Z,16.57
2018-09-05T11:41:13.337Z,17.60
2018-09-05T11:46:42.725Z,25.60
2018-09-05T11:52:14.262Z,14.43
2018-09-05T11:57:44.796Z,17.98
2018-09-05T12:03:14.000Z,15.98
2018-09-05T12:08:43.405Z,17.93
2018-09-05T12:14:12.645Z,17.73
2018-09-05T12:19:41.898Z,17.60
2018-09-05T12:25:11.487Z,14.95
2018-09-05T12:30:40.842Z,20.48
2018-09-05T12:36:10.218Z,18.77
2018-09-05T12:41:39.607Z,18.67
2018-09-05T12:47:14.387Z,25.80
2018-09-05T12:52:43.681Z,18.62
2018-09-05T12:58:12.903Z,22.37
2018-09-05T13:03:42.139Z,20.20
2018-09-05T13:09:13.165Z,26.40
2018-09-05T13:14:43.169Z,19.92
2018-09-05T13:20:13.852Z,22.50
2018-09-05T13:25:44.255Z,25.30
2018-09-05T13:31:13.665Z,17.70
2018-09-05T13:36:43.589Z,19.10
2018-09-05T13:42:14.068Z,21.77
2018-09-05T13:47:43.527Z,18.12
2018-09-05T13:53:13.772Z,22.83
2018-09-05T13:58:43.164Z,18.57
2018-09-05T14:04:12.467Z,19.60
2018-09-05T14:09:41.764Z,21.27
2018-09-05T14:15:11.199Z,17.62
2018-09-05T14:20:40.558Z,20.12
2018-09-05T14:26:12.190Z,16.10
2018-09-05T14:31:41.633Z,17.70
2018-09-05T14:37:12.033Z,16.47
2018-09-05T14:42:41.500Z,15.32
2018-09-05T14:48:11.003Z,18.52
2018-09-05T14:53:40.368Z,17.43
2018-09-05T14:59:10.705Z,15.18
2018-09-05T15:04:41.771Z,16.63
2018-09-05T15:10:11.301Z,17.10
2018-09-05T15:15:41.604Z,26.40
2018-09-05T15:21:12.974Z,25.17
2018-09-05T15:26:42.299Z,21.93
2018-09-05T15:32:11.587Z,25.23
2018-09-05T15:37:40.856Z,23.73
2018-09-05T15:43:10.296Z,22.70
2018-09-05T15:48:39.543Z,26.37
2018-09-05T15:54:08.836Z,25.77
2018-09-05T15:59:38.437Z,22.80
2018-09-05T16:05:07.949Z,27.70
2018-09-05T16:10:37.805Z,30.23
2018-09-05T16:16:09.107Z,27.53
2018-09-05T16:21:38.529Z,30.35
2018-09-05T16:27:08.154Z,32.88
2018-09-05T16:32:37.903Z,29.60
2018-09-05T16:38:07.505Z,27.30
2018-09-05T16:43:36.928Z,29.23
2018-09-05T16:49:06.421Z,33.20
2018-09-05T16:54:35.657Z,33.90
2018-09-05T17:00:05.263Z,29.65
2018-09-05T17:05:35.532Z,31.70
2018-09-05T17:11:04.942Z,29.17
2018-09-05T17:16:35.448Z,32.93
2018-09-05T17:22:05.180Z,31.70
2018-09-05T17:27:34.507Z,32.65
2018-09-05T17:33:04.241Z,33.45
2018-09-05T17:38:37.372Z,35.17
2018-09-05T17:44:07.659Z,32.40
2018-09-05T17:49:37.180Z,36.97
2018-09-05T17:55:07.096Z,32.20
2018-09-05T18:00:36.463Z,32.30
2018-09-05T18:06:09.699Z,40.57
2018-09-05T18:11:53.416Z,44.63
2018-09-05T18:17:23.686Z,46.07
2018-09-05T18:22:53.127Z,61.03
2018-09-05T18:28:28.132Z,51.80
2018-09-05T18:33:57.632Z,37.23
2018-09-05T18:39:27.510Z,39.20
2018-09-05T18:44:58.252Z,46.07
2018-09-05T18:50:27.667Z,44.17
2018-09-05T18:55:57.151Z,43.52
2018-09-05T19:01:26.680Z,50.30
2018-09-05T19:06:57.082Z,39.40
2018-09-05T19:12:26.745Z,45.23
2018-09-05T19:17:56.391Z,46.17
2018-09-05T19:23:25.876Z,46.25
2018-09-05T19:28:55.415Z,54.18
2018-09-05T19:34:24.829Z,51.67
2018-09-05T19:39:54.903Z,44.80
2018-09-05T19:45:24.252Z,48.60
2018-09-05T19:50:57.393Z,53.73
2018-09-05T19:56:26.918Z,52.07
2018-09-05T20:01:56.316Z,55.53
2018-09-05T20:07:25.784Z,69.60
2018-09-05T20:12:58.811Z,57.35
2018-09-05T20:18:28.481Z,65.87
2018-09-05T20:23:57.976Z,60.23
2018-09-05T20:29:27.493Z,60.95
2018-09-05T20:34:56.927Z,58.00
2018-09-05T20:40:26.407Z,59.13
2018-09-05T20:45:58.792Z,65.40
2018-09-05T20:51:28.790Z,53.87
2018-09-05T20:56:58.556Z,51.53
2018-09-05T21:02:28.068Z,44.80
2018-09-05T21:08:00.024Z,46.45
2018-09-05T21:13:30.544Z,48.70
2018-09-05T21:18:59.855Z,46.70
2018-09-05T21:24:29.178Z,43.57
2018-09-05T21:29:59.254Z,47.90
2018-09-05T21:35:29.802Z,47.50
2018-09-05T21:40:59.312Z,50.30
2018-09-05T21:46:28.796Z,52.43
2018-09-05T21:51:58.113Z,50.43
2018-09-05T21:57:27.474Z,50.92
2018-09-05T22:02:57.635Z,52.78
2018-09-05T22:08:27.028Z,50.30
2018-09-05T22:13:56.928Z,48.50
2018-09-05T22:19:26.408Z,49.57
2018-09-05T22:24:55.730Z,47.70
2018-09-05T22:30:28.801Z,41.55
2018-09-05T22:35:58.169Z,47.23
2018-09-05T22:41:27.565Z,47.23
2018-09-05T22:47:13.705Z,46.30
2018-09-05T22:55:40.754Z,41.90
2018-09-05T23:01:48.484Z,42.27
2018-09-05T23:09:47.993Z,43.98
2018-09-05T23:15:34.108Z,44.73
2018-09-05T23:21:21.622Z,38.57
2018-09-05T23:26:50.887Z,44.97
2018-09-05T23:32:20.128Z,41.00
2018-09-05T23:37:51.156Z,37.05
2018-09-05T23:43:20.608Z,37.13
2018-09-05T23:48:49.884Z,41.07
2018-09-05T23:54:19.249Z,33.40
2018-09-05T23:59:52.710Z,33.18
